createdAt,value
2019-01-26T00:00:40.029Z,147248.64
2019-01-26T00:01:47.466Z,147251.16
2019-01-26T00:02:53.469Z,147271.30
2019-01-26T00:04:00.434Z,147240.47
2019-01-26T00:05:06.139Z,147239.84
2019-01-26T00:06:12.172Z,147240.47
2019-01-26T00:07:18.606Z,147210.97
2019-01-26T00:08:24.997Z,147256.17
2019-01-26T00:09:31.360Z,147294.53
2019-01-26T00:10:37.436Z,147245.53
2019-01-26T00:11:43.864Z,147255.53
2019-01-26T00:12:50.231Z,147275.03
2019-01-26T00:13:56.894Z,147277.56
2019-01-26T00:15:02.755Z,147313.98
2019-01-26T00:16:08.749Z,147304.59
2019-01-26T00:17:15.130Z,147261.23
2019-01-26T00:18:21.532Z,147305.81
2019-01-26T00:19:27.920Z,147290.75
2019-01-26T00:20:36.479Z,147306.44
2019-01-26T00:21:40.699Z,147303.97
2019-01-26T00:22:47.431Z,147298.28
2019-01-26T00:23:53.765Z,147337.28
2019-01-26T00:25:00.173Z,147333.48
2019-01-26T00:26:06.025Z,147319.03
2019-01-26T00:27:12.410Z,147300.17
2019-01-26T00:28:18.778Z,147346.70
2019-01-26T00:29:25.172Z,147349.81
2019-01-26T00:30:30.815Z,147371.84
2019-01-26T00:31:37.182Z,147386.30
2019-01-26T00:32:43.579Z,147366.80
2019-01-26T00:33:49.922Z,147381.88
2019-01-26T00:34:56.377Z,147388.83
2019-01-26T00:36:02.370Z,147397.00
2019-01-26T00:37:08.826Z,147420.25
2019-01-26T00:38:14.502Z,147417.09
2019-01-26T00:39:20.879Z,147378.12
2019-01-26T00:40:27.004Z,147357.36
2019-01-26T00:41:33.017Z,147402.64
2019-01-26T00:42:39.067Z,147418.98
2019-01-26T00:43:45.962Z,147427.78
2019-01-26T00:44:52.347Z,147418.98
2019-01-26T00:45:58.714Z,147447.30
2019-01-26T00:47:04.350Z,147433.44
2019-01-26T00:48:10.407Z,147445.41
2019-01-26T00:49:16.779Z,147422.78
2019-01-26T00:50:23.174Z,147386.30
2019-01-26T00:51:29.532Z,147415.83
2019-01-26T00:52:35.868Z,147429.06
2019-01-26T00:53:42.258Z,147432.80
2019-01-26T00:54:48.648Z,147423.36
2019-01-26T00:55:54.652Z,147435.33
2019-01-26T00:57:01.028Z,147431.53
2019-01-26T00:58:07.397Z,147432.16
2019-01-26T00:59:13.773Z,147438.50
2019-01-26T01:00:20.082Z,147465.48
2019-01-26T01:01:25.733Z,147461.11
2019-01-26T01:02:32.093Z,147474.92
2019-01-26T01:03:37.945Z,147488.80
2019-01-26T01:04:44.315Z,147484.38
2019-01-26T01:05:50.316Z,147486.27
2019-01-26T01:06:56.346Z,147485.63
2019-01-26T01:08:02.328Z,147447.92
2019-01-26T01:09:08.029Z,147447.92
2019-01-26T01:10:14.658Z,147459.22
2019-01-26T01:11:21.024Z,147427.16
2019-01-26T01:12:27.353Z,147427.16
2019-01-26T01:13:33.386Z,147442.88
2019-01-26T01:14:39.372Z,147433.44
2019-01-26T01:15:45.348Z,147437.22
2019-01-26T01:16:51.718Z,147450.41
2019-01-26T01:17:58.077Z,147436.59
2019-01-26T01:19:03.767Z,147439.12
2019-01-26T01:20:09.592Z,147394.47
2019-01-26T01:21:15.988Z,147422.78
2019-01-26T01:22:22.346Z,147422.14
2019-01-26T01:23:28.702Z,147405.17
2019-01-26T01:24:35.248Z,147409.55
2019-01-26T01:25:42.368Z,147432.80
2019-01-26T01:26:49.259Z,147435.33
2019-01-26T01:28:00.835Z,147434.06
2019-01-26T01:30:21.524Z,147417.09
2019-01-26T01:31:27.904Z,147435.33
2019-01-26T01:32:34.264Z,147439.12
2019-01-26T01:33:40.632Z,147447.30
2019-01-26T01:34:47.003Z,147446.66
2019-01-26T01:35:52.999Z,147431.53
2019-01-26T01:36:59.351Z,147441.59
2019-01-26T01:38:11.538Z,147418.34
2019-01-26T01:39:17.906Z,147408.28
2019-01-26T01:40:23.962Z,147415.19
2019-01-26T01:41:30.320Z,147402.64
2019-01-26T01:42:36.298Z,147414.56
2019-01-26T01:43:42.298Z,147422.78
2019-01-26T01:44:48.283Z,147444.13
2019-01-26T01:45:54.614Z,147439.12
2019-01-26T01:47:00.725Z,147441.59
2019-01-26T01:48:06.708Z,147435.33
2019-01-26T01:49:13.084Z,147441.59
2019-01-26T01:50:19.035Z,147440.34
2019-01-26T01:51:25.373Z,147458.58
2019-01-26T01:52:31.757Z,147452.94
2019-01-26T01:53:38.167Z,147452.31
2019-01-26T01:54:44.517Z,147449.14
2019-01-26T01:55:50.870Z,147430.31
2019-01-26T01:56:57.267Z,147432.80
2019-01-26T01:58:03.610Z,147439.12
2019-01-26T01:59:09.993Z,147434.69
2019-01-26T02:00:17.151Z,147461.11
2019-01-26T02:01:23.540Z,147456.69
2019-01-26T02:02:28.856Z,147461.11
2019-01-26T02:03:35.287Z,147461.75
2019-01-26T02:04:41.679Z,147435.97
2019-01-26T02:05:48.061Z,147456.69
2019-01-26T02:06:54.390Z,147424.63
2019-01-26T02:08:00.771Z,147432.80
2019-01-26T02:09:06.487Z,147407.66
2019-01-26T02:10:12.147Z,147421.52
2019-01-26T02:11:18.534Z,147429.69
2019-01-26T02:12:24.914Z,147429.69
2019-01-26T02:13:31.264Z,147411.44
2019-01-26T02:14:37.687Z,147449.78
2019-01-26T02:15:43.729Z,147434.69
2019-01-26T02:16:50.373Z,147412.70
2019-01-26T02:17:56.556Z,147390.67
2019-01-26T02:19:02.912Z,147412.08
2019-01-26T02:20:09.458Z,147407.02
2019-01-26T02:21:15.100Z,147401.37
2019-01-26T02:22:21.469Z,147385.03
2019-01-26T02:23:27.859Z,147410.81
2019-01-26T02:24:33.919Z,147435.33
2019-01-26T02:25:40.320Z,147447.92
2019-01-26T02:26:46.741Z,147446.03
2019-01-26T02:27:52.694Z,147437.86
2019-01-26T02:28:59.688Z,147447.30
2019-01-26T02:30:05.318Z,147447.92
2019-01-26T02:31:11.447Z,147474.92
2019-01-26T02:32:17.834Z,147457.31
2019-01-26T02:33:25.166Z,147430.95
2019-01-26T02:34:31.487Z,147446.03
2019-01-26T02:35:37.947Z,147433.44
2019-01-26T02:36:44.400Z,147440.97
2019-01-26T02:37:50.746Z,147452.31
2019-01-26T02:38:57.101Z,147452.31
2019-01-26T02:40:03.212Z,147456.09
2019-01-26T02:41:09.099Z,147422.14
2019-01-26T02:42:15.513Z,147444.77
2019-01-26T02:43:21.911Z,147448.52
2019-01-26T02:44:28.270Z,147466.12
2019-01-26T02:45:34.677Z,147485.63
2019-01-26T02:46:41.067Z,147482.47
2019-01-26T02:47:47.052Z,147472.45
2019-01-26T02:48:53.392Z,147469.28
2019-01-26T02:50:00.500Z,147457.31
2019-01-26T02:51:07.872Z,147468.02
2019-01-26T02:52:14.342Z,147496.97
2019-01-26T02:53:20.753Z,147488.80
2019-01-26T02:54:27.117Z,147503.88
2019-01-26T02:55:33.109Z,147469.92
2019-01-26T02:56:39.503Z,147510.78
2019-01-26T02:57:45.508Z,147473.66
2019-01-26T02:58:51.844Z,147519.59
2019-01-26T02:59:58.233Z,147513.31
2019-01-26T03:01:04.235Z,147515.80
2019-01-26T03:02:10.672Z,147552.30
2019-01-26T03:03:17.069Z,147537.22
2019-01-26T03:04:23.447Z,147523.39
2019-01-26T03:05:29.757Z,147520.86
2019-01-26T03:06:36.131Z,147529.67
2019-01-26T03:07:42.574Z,147535.94
2019-01-26T03:08:48.945Z,147510.16
2019-01-26T03:09:55.273Z,147532.78
2019-01-26T03:11:01.671Z,147544.75
2019-01-26T03:12:07.746Z,147572.44
2019-01-26T03:13:14.765Z,147544.12
2019-01-26T03:14:21.886Z,147527.77
2019-01-26T03:15:28.069Z,147554.83
2019-01-26T03:16:34.497Z,147589.44
2019-01-26T03:17:40.539Z,147581.25
2019-01-26T03:18:46.943Z,147597.61
2019-01-26T03:19:53.498Z,147608.91
2019-01-26T03:20:59.981Z,147603.89
2019-01-26T03:22:06.541Z,147626.53
2019-01-26T03:23:13.026Z,147618.34
2019-01-26T03:24:19.195Z,147606.42
2019-01-26T03:25:25.753Z,147611.44
2019-01-26T03:26:32.148Z,147610.17
2019-01-26T03:27:38.662Z,147634.06
2019-01-26T03:28:45.127Z,147610.17
2019-01-26T03:29:51.836Z,147642.25
2019-01-26T03:30:58.316Z,147597.61
2019-01-26T03:32:04.371Z,147619.61
2019-01-26T03:33:10.778Z,147632.84
2019-01-26T03:34:17.277Z,147625.89
2019-01-26T03:35:23.837Z,147645.41
2019-01-26T03:36:30.290Z,147644.14
2019-01-26T03:37:36.667Z,147656.75
2019-01-26T03:38:43.147Z,147678.77
2019-01-26T03:39:49.590Z,147654.86
2019-01-26T03:40:55.989Z,147643.52
2019-01-26T03:42:02.272Z,147640.41
2019-01-26T03:43:08.732Z,147646.67
2019-01-26T03:44:15.136Z,147690.73
2019-01-26T03:45:20.806Z,147690.73
2019-01-26T03:46:27.314Z,147669.31
2019-01-26T03:47:33.941Z,147676.23
2019-01-26T03:48:40.372Z,147707.09
2019-01-26T03:49:46.839Z,147684.41
2019-01-26T03:50:53.200Z,147677.50
2019-01-26T03:51:59.715Z,147663.03
2019-01-26T03:53:06.542Z,147670.58
2019-01-26T03:54:13.104Z,147691.37
2019-01-26T03:55:18.959Z,147705.20
2019-01-26T03:56:26.273Z,147724.09
2019-01-26T03:57:32.586Z,147742.36
2019-01-26T03:58:38.953Z,147742.94
2019-01-26T03:59:45.050Z,147756.19
2019-01-26T04:00:51.604Z,147735.39
2019-01-26T04:01:57.640Z,147732.28
2019-01-26T04:03:03.808Z,147736.66
2019-01-26T04:04:10.151Z,147697.02
2019-01-26T04:05:16.307Z,147719.66
2019-01-26T04:06:22.791Z,147706.47
2019-01-26T04:07:29.279Z,147715.91
2019-01-26T04:08:36.404Z,147727.84
2019-01-26T04:09:42.930Z,147719.66
2019-01-26T04:10:49.246Z,147710.22
2019-01-26T04:11:55.739Z,147742.36
2019-01-26T04:13:02.199Z,147747.38
2019-01-26T04:14:08.670Z,147751.17
2019-01-26T04:15:14.447Z,147774.45
2019-01-26T04:16:21.533Z,147770.66
2019-01-26T04:17:27.990Z,147765.64
2019-01-26T04:18:34.647Z,147722.19
2019-01-26T04:19:41.942Z,147730.38
2019-01-26T04:20:48.504Z,147701.41
2019-01-26T04:21:54.984Z,147710.22
2019-01-26T04:23:01.381Z,147731.00
2019-01-26T04:24:07.987Z,147742.94
2019-01-26T04:25:14.093Z,147763.09
2019-01-26T04:26:20.214Z,147763.09
2019-01-26T04:27:26.599Z,147761.20
2019-01-26T04:28:33.065Z,147771.28
2019-01-26T04:29:39.623Z,147767.53
2019-01-26T04:30:45.975Z,147766.91
2019-01-26T04:31:52.414Z,147766.27
2019-01-26T04:32:58.846Z,147762.47
2019-01-26T04:34:05.247Z,147764.38
2019-01-26T04:35:10.937Z,147778.84
2019-01-26T04:36:17.435Z,147777.56
2019-01-26T04:37:23.563Z,147791.45
2019-01-26T04:38:30.210Z,147761.84
2019-01-26T04:39:36.598Z,147764.38
2019-01-26T04:40:44.168Z,147764.38
2019-01-26T04:41:51.104Z,147776.34
2019-01-26T04:42:57.790Z,147802.12
2019-01-26T04:44:03.967Z,147800.27
2019-01-26T04:45:09.794Z,147790.19
2019-01-26T04:46:15.951Z,147739.19
2019-01-26T04:47:30.549Z,147739.19
2019-01-26T04:48:28.858Z,147767.53
2019-01-26T04:49:35.248Z,147776.34
2019-01-26T04:50:42.467Z,147766.91
2019-01-26T04:51:47.870Z,147758.72
2019-01-26T04:52:54.087Z,147754.28
2019-01-26T04:54:00.578Z,147780.09
2019-01-26T04:55:06.224Z,147759.34
2019-01-26T04:56:12.752Z,147771.28
2019-01-26T04:57:19.270Z,147782.00
2019-01-26T04:58:25.850Z,147787.02
2019-01-26T04:59:32.322Z,147779.47
2019-01-26T05:00:39.173Z,147804.66
2019-01-26T05:01:45.667Z,147783.27
2019-01-26T05:02:51.823Z,147761.20
2019-01-26T05:03:58.364Z,147768.12
2019-01-26T05:05:04.269Z,147768.12
2019-01-26T05:06:10.639Z,147756.81
2019-01-26T05:07:17.018Z,147769.37
2019-01-26T05:08:23.438Z,147773.81
2019-01-26T05:09:29.865Z,147756.19
2019-01-26T05:10:36.351Z,147764.38
2019-01-26T05:11:42.860Z,147754.92
2019-01-26T05:12:48.629Z,147753.66
2019-01-26T05:13:57.932Z,147802.75
2019-01-26T05:15:03.567Z,147804.02
2019-01-26T05:16:09.993Z,147814.09
2019-01-26T05:17:16.342Z,147820.38
2019-01-26T05:18:22.827Z,147808.44
2019-01-26T05:19:29.398Z,147817.91
2019-01-26T05:20:35.991Z,147832.38
2019-01-26T05:21:42.367Z,147826.08
2019-01-26T05:22:48.470Z,147827.94
2019-01-26T05:23:54.962Z,147833.63
2019-01-26T05:25:01.405Z,147839.92
2019-01-26T05:26:07.424Z,147807.81
2019-01-26T05:27:13.879Z,147803.37
2019-01-26T05:28:19.866Z,147834.27
2019-01-26T05:29:27.084Z,147842.45
2019-01-26T05:30:33.275Z,147835.48
2019-01-26T05:31:39.636Z,147818.53
2019-01-26T05:32:45.976Z,147836.12
2019-01-26T05:33:52.394Z,147832.38
2019-01-26T05:34:58.747Z,147807.81
2019-01-26T05:36:04.405Z,147814.09
2019-01-26T05:37:10.414Z,147820.38
2019-01-26T05:38:16.856Z,147799.00
2019-01-26T05:39:22.882Z,147790.81
2019-01-26T05:40:29.227Z,147811.56
2019-01-26T05:41:35.581Z,147839.92
2019-01-26T05:42:41.578Z,147841.19
2019-01-26T05:43:48.016Z,147805.28
2019-01-26T05:44:54.363Z,147834.27
2019-01-26T05:46:00.406Z,147833.63
2019-01-26T05:47:06.821Z,147801.53
2019-01-26T05:48:12.794Z,147790.19
2019-01-26T05:49:19.220Z,147790.81
2019-01-26T05:50:24.874Z,147796.47
2019-01-26T05:51:31.207Z,147841.19
2019-01-26T05:52:37.563Z,147859.45
2019-01-26T05:53:44.012Z,147863.84
2019-01-26T05:54:50.077Z,147858.81
2019-01-26T05:55:56.019Z,147833.63
2019-01-26T05:57:02.341Z,147824.81
2019-01-26T05:58:08.319Z,147814.73
2019-01-26T05:59:14.366Z,147839.92
2019-01-26T06:00:19.801Z,147823.55
2019-01-26T06:01:25.809Z,147840.55
2019-01-26T06:02:32.157Z,147834.89
2019-01-26T06:03:38.657Z,147833.63
2019-01-26T06:04:45.577Z,147827.94
2019-01-26T06:05:52.237Z,147829.83
2019-01-26T06:06:58.598Z,147838.66
2019-01-26T06:08:04.251Z,147866.38
2019-01-26T06:09:10.614Z,147858.81
2019-01-26T06:10:16.966Z,147845.56
2019-01-26T06:11:23.318Z,147855.66
2019-01-26T06:12:29.708Z,147850.63
2019-01-26T06:13:36.091Z,147846.20
2019-01-26T06:14:42.418Z,147841.81
2019-01-26T06:15:48.824Z,147878.31
2019-01-26T06:16:54.865Z,147860.09
2019-01-26T06:18:01.225Z,147856.92
2019-01-26T06:19:07.301Z,147846.20
2019-01-26T06:20:13.032Z,147817.91
2019-01-26T06:21:19.416Z,147834.27
2019-01-26T06:22:25.758Z,147840.55
2019-01-26T06:23:32.142Z,147821.66
2019-01-26T06:24:38.783Z,147840.55
2019-01-26T06:25:45.133Z,147818.53
2019-01-26T06:26:51.188Z,147822.28
2019-01-26T06:27:57.595Z,147834.27
2019-01-26T06:29:03.680Z,147838.66
2019-01-26T06:30:10.150Z,147807.81
2019-01-26T06:31:16.525Z,147826.08
2019-01-26T06:32:22.837Z,147834.27
2019-01-26T06:33:29.446Z,147844.94
2019-01-26T06:34:36.091Z,147855.66
2019-01-26T06:35:42.159Z,147847.47
2019-01-26T06:36:48.490Z,147826.08
2019-01-26T06:37:54.922Z,147838.66
2019-01-26T06:39:01.279Z,147863.84
2019-01-26T06:40:06.996Z,147872.66
2019-01-26T06:41:12.999Z,147861.30
2019-01-26T06:42:19.404Z,147871.39
2019-01-26T06:43:25.759Z,147877.67
2019-01-26T06:44:32.137Z,147854.39
2019-01-26T06:45:38.492Z,147843.08
2019-01-26T06:46:44.848Z,147825.44
2019-01-26T06:47:51.694Z,147809.72
2019-01-26T06:48:58.392Z,147801.53
2019-01-26T06:50:04.099Z,147821.66
2019-01-26T06:51:10.415Z,147836.12
2019-01-26T06:52:16.777Z,147815.36
2019-01-26T06:53:23.140Z,147810.94
2019-01-26T06:54:29.466Z,147830.47
2019-01-26T06:55:35.839Z,147880.20
2019-01-26T06:56:42.869Z,147865.09
2019-01-26T06:57:48.850Z,147858.19
2019-01-26T06:58:55.238Z,147861.94
2019-01-26T07:00:01.640Z,147872.02
2019-01-26T07:01:08.078Z,147878.31
2019-01-26T07:02:14.459Z,147849.38
2019-01-26T07:03:20.824Z,147863.20
2019-01-26T07:04:26.948Z,147884.64
2019-01-26T07:05:33.597Z,147892.19
2019-01-26T07:06:39.985Z,147902.28
2019-01-26T07:07:46.306Z,147914.22
2019-01-26T07:08:52.854Z,147911.09
2019-01-26T07:09:59.542Z,147916.75
2019-01-26T07:11:05.406Z,147880.84
2019-01-26T07:12:12.064Z,147867.00
2019-01-26T07:13:18.448Z,147873.28
2019-01-26T07:14:24.840Z,147857.56
2019-01-26T07:15:31.325Z,147860.72
2019-01-26T07:16:37.796Z,147861.30
2019-01-26T07:17:44.188Z,147858.19
2019-01-26T07:18:50.551Z,147882.11
2019-01-26T07:19:56.638Z,147892.19
2019-01-26T07:21:03.027Z,147902.91
2019-01-26T07:22:09.389Z,147872.02
2019-01-26T07:23:15.768Z,147880.84
2019-01-26T07:24:22.010Z,147874.56
2019-01-26T07:25:28.423Z,147921.77
2019-01-26T07:26:34.787Z,147929.95
2019-01-26T07:27:40.499Z,147948.23
2019-01-26T07:28:46.566Z,147912.31
2019-01-26T07:29:52.916Z,147917.38
2019-01-26T07:30:59.926Z,147920.50
2019-01-26T07:32:05.584Z,147909.20
2019-01-26T07:33:11.233Z,147903.50
2019-01-26T07:34:17.643Z,147912.31
2019-01-26T07:35:24.088Z,147873.92
2019-01-26T07:36:30.561Z,147879.58
2019-01-26T07:37:36.643Z,147897.22
2019-01-26T07:38:43.046Z,147896.58
2019-01-26T07:39:49.707Z,147924.31
2019-01-26T07:40:56.111Z,147954.52
2019-01-26T07:42:02.431Z,147948.87
2019-01-26T07:43:10.256Z,147894.69
2019-01-26T07:44:15.249Z,147898.47
2019-01-26T07:45:21.004Z,147918.02
2019-01-26T07:46:27.336Z,147918.02
2019-01-26T07:47:33.686Z,147905.41
2019-01-26T07:48:40.043Z,147902.28
2019-01-26T07:49:46.440Z,147896.58
2019-01-26T07:50:52.274Z,147912.31
2019-01-26T07:51:58.394Z,147892.19
2019-01-26T07:53:04.439Z,147936.88
2019-01-26T07:54:10.539Z,147916.75
2019-01-26T07:55:16.255Z,147930.59
2019-01-26T07:56:22.335Z,147946.33
2019-01-26T07:57:28.685Z,147938.14
2019-01-26T07:58:35.059Z,147965.25
2019-01-26T07:59:41.414Z,147965.25
2019-01-26T08:00:47.806Z,147955.16
2019-01-26T08:01:54.276Z,147943.84
2019-01-26T08:03:00.007Z,147959.59
2019-01-26T08:04:06.017Z,147935.03
2019-01-26T08:05:11.786Z,147927.47
2019-01-26T08:06:18.335Z,147966.50
2019-01-26T08:07:24.670Z,147965.87
2019-01-26T08:08:31.067Z,147953.88
2019-01-26T08:09:37.396Z,147974.69
2019-01-26T08:10:43.758Z,147935.03
2019-01-26T08:11:50.179Z,147955.78
2019-01-26T08:12:56.549Z,147967.78
2019-01-26T08:14:03.150Z,147975.97
2019-01-26T08:15:09.071Z,147955.78
2019-01-26T08:16:15.501Z,147965.25
2019-01-26T08:17:21.939Z,147970.89
2019-01-26T08:18:28.308Z,147938.78
2019-01-26T08:19:35.290Z,147936.30
2019-01-26T08:20:41.706Z,147975.97
2019-01-26T08:21:48.086Z,148013.73
2019-01-26T08:22:54.121Z,147969.03
2019-01-26T08:24:00.549Z,147935.03
2019-01-26T08:25:06.283Z,147936.30
2019-01-26T08:26:12.661Z,147945.06
2019-01-26T08:27:19.018Z,147923.03
2019-01-26T08:28:25.382Z,147969.67
2019-01-26T08:29:31.769Z,147979.08
2019-01-26T08:30:38.171Z,147979.72
2019-01-26T08:31:44.527Z,147955.16
2019-01-26T08:32:50.273Z,147921.77
2019-01-26T08:33:56.660Z,147959.59
2019-01-26T08:35:03.066Z,147954.52
2019-01-26T08:36:09.469Z,147946.97
2019-01-26T08:37:16.118Z,147954.52
2019-01-26T08:38:23.131Z,148003.69
2019-01-26T08:39:29.817Z,148004.92
2019-01-26T08:40:36.465Z,148029.48
2019-01-26T08:41:43.145Z,148027.63
2019-01-26T08:42:49.232Z,148010.63
2019-01-26T08:43:55.630Z,147977.23
2019-01-26T08:45:02.002Z,147977.23
2019-01-26T08:46:08.047Z,148001.16
2019-01-26T08:47:14.401Z,147986.69
2019-01-26T08:48:20.794Z,147998.63
2019-01-26T08:49:27.273Z,148018.81
2019-01-26T08:50:33.310Z,148040.20
2019-01-26T08:51:39.785Z,148009.98
2019-01-26T08:52:45.412Z,147980.34
2019-01-26T08:53:51.777Z,148002.44
2019-01-26T08:54:58.166Z,147973.44
2019-01-26T08:56:05.181Z,148009.98
2019-01-26T08:57:11.763Z,147995.50
2019-01-26T08:58:18.130Z,147986.69
2019-01-26T08:59:24.494Z,148023.19
2019-01-26T09:00:30.524Z,148042.11
2019-01-26T09:01:36.924Z,148028.89
2019-01-26T09:02:48.324Z,147993.61
2019-01-26T09:03:57.819Z,147975.97
2019-01-26T09:05:03.841Z,147986.05
2019-01-26T09:06:09.982Z,148042.75
2019-01-26T09:07:16.295Z,148065.41
2019-01-26T09:08:22.748Z,148066.05
2019-01-26T09:09:29.093Z,148055.95
2019-01-26T09:10:35.481Z,148066.67
2019-01-26T09:11:42.172Z,148087.50
2019-01-26T09:12:48.729Z,148058.48
2019-01-26T09:13:55.220Z,148013.09
2019-01-26T09:15:01.367Z,147981.61
2019-01-26T09:16:07.074Z,148009.34
2019-01-26T09:17:14.063Z,148050.94
2019-01-26T09:18:20.390Z,148049.03
2019-01-26T09:19:26.914Z,148047.13
2019-01-26T09:20:33.324Z,148027.63
2019-01-26T09:21:39.435Z,147993.61
2019-01-26T09:22:45.163Z,148016.28
2019-01-26T09:23:51.208Z,148061.66
2019-01-26T09:24:57.706Z,148061.03
2019-01-26T09:26:03.776Z,148036.45
2019-01-26T09:27:09.843Z,148012.52
2019-01-26T09:28:15.892Z,148047.13
2019-01-26T09:29:22.001Z,148070.48
2019-01-26T09:30:28.389Z,148053.47
2019-01-26T09:31:34.946Z,148067.31
2019-01-26T09:32:41.376Z,148066.05
2019-01-26T09:33:47.781Z,148094.42
2019-01-26T09:34:54.139Z,148079.94
2019-01-26T09:36:00.524Z,148064.78
2019-01-26T09:37:06.918Z,148098.81
2019-01-26T09:38:13.377Z,148107.00
2019-01-26T09:39:19.943Z,148111.44
2019-01-26T09:40:26.365Z,148126.56
2019-01-26T09:41:32.744Z,148100.72
2019-01-26T09:42:38.847Z,148098.17
2019-01-26T09:43:44.534Z,148091.87
2019-01-26T09:44:50.876Z,148082.42
2019-01-26T09:45:57.327Z,148119.00
2019-01-26T09:47:03.129Z,148095.69
2019-01-26T09:48:08.833Z,148154.94
2019-01-26T09:49:14.584Z,148122.75
2019-01-26T09:50:20.276Z,148130.36
2019-01-26T09:51:26.895Z,148086.23
2019-01-26T09:52:33.291Z,148127.19
2019-01-26T09:53:39.718Z,148110.17
2019-01-26T09:54:45.715Z,148129.09
2019-01-26T09:55:52.220Z,148130.94
2019-01-26T09:56:58.703Z,148116.47
2019-01-26T09:58:04.484Z,148146.75
2019-01-26T09:59:10.965Z,148160.59
2019-01-26T10:00:17.971Z,148135.37
2019-01-26T10:01:24.511Z,148095.69
2019-01-26T10:02:31.644Z,148107.00
2019-01-26T10:03:38.047Z,148067.31
2019-01-26T10:04:44.607Z,148059.75
2019-01-26T10:05:51.071Z,148107.00
2019-01-26T10:06:57.498Z,148134.75
2019-01-26T10:08:04.072Z,148124.66
2019-01-26T10:09:09.810Z,148126.56
2019-01-26T10:10:16.240Z,148159.97
2019-01-26T10:11:22.778Z,148178.25
2019-01-26T10:12:29.309Z,148153.67
2019-01-26T10:13:35.811Z,148148.59
2019-01-26T10:14:42.075Z,148107.00
2019-01-26T10:15:48.532Z,148133.48
2019-01-26T10:16:55.013Z,148116.47
2019-01-26T10:18:00.697Z,148153.03
2019-01-26T10:19:07.068Z,148118.36
2019-01-26T10:20:13.223Z,148114.56
2019-01-26T10:21:19.673Z,148147.38
2019-01-26T10:22:26.238Z,148134.11
2019-01-26T10:23:32.783Z,148164.98
2019-01-26T10:24:39.324Z,148182.64
2019-01-26T10:25:48.838Z,148185.17
2019-01-26T10:26:52.343Z,148198.39
2019-01-26T10:27:58.376Z,148169.42
2019-01-26T10:29:04.432Z,148199.03
2019-01-26T10:30:20.200Z,148218.59
2019-01-26T10:31:27.470Z,148206.00
2019-01-26T10:32:33.907Z,148194.62
2019-01-26T10:33:40.416Z,148171.95
2019-01-26T10:34:46.850Z,148151.77
2019-01-26T10:37:29.777Z,148204.09
2019-01-26T10:38:36.002Z,148195.91
2019-01-26T10:39:42.337Z,148209.13
2019-01-26T10:42:23.634Z,148155.56
2019-01-26T10:43:36.413Z,148171.33
2019-01-26T10:44:42.246Z,148194.62
2019-01-26T10:45:48.684Z,148207.84
2019-01-26T10:46:54.765Z,148214.83
2019-01-26T10:48:01.251Z,148180.16
2019-01-26T10:49:07.687Z,148171.95
2019-01-26T10:50:14.194Z,148188.34
2019-01-26T10:51:20.513Z,148173.81
2019-01-26T10:52:26.701Z,148151.77
2019-01-26T10:53:33.066Z,148173.17
2019-01-26T10:54:39.593Z,148215.42
2019-01-26T10:55:46.242Z,148246.97
2019-01-26T10:56:52.652Z,148248.83
2019-01-26T10:57:59.077Z,148227.41
2019-01-26T10:59:04.866Z,148244.44
2019-01-26T11:00:12.457Z,148226.78
2019-01-26T11:01:18.667Z,148243.81
2019-01-26T11:02:25.317Z,148277.22
2019-01-26T11:03:31.815Z,148266.50
2019-01-26T11:04:38.198Z,148264.00
2019-01-26T11:05:44.214Z,148255.81
2019-01-26T11:06:50.824Z,148251.37
2019-01-26T11:07:57.284Z,148246.34
2019-01-26T11:09:03.073Z,148240.63
2019-01-26T11:10:09.145Z,148241.27
2019-01-26T11:11:15.615Z,148237.52
2019-01-26T11:12:22.198Z,148245.70
2019-01-26T11:13:28.700Z,148244.44
2019-01-26T11:14:35.193Z,148255.81
2019-01-26T11:15:41.676Z,148269.03
2019-01-26T11:16:47.777Z,148301.81
2019-01-26T11:17:54.169Z,148321.38
2019-01-26T11:19:00.622Z,148299.33
2019-01-26T11:20:07.746Z,148315.09
2019-01-26T11:21:14.187Z,148304.34
2019-01-26T11:22:21.087Z,148315.72
2019-01-26T11:23:27.138Z,148299.33
2019-01-26T11:24:33.492Z,148297.42
2019-01-26T11:25:39.940Z,148346.61
2019-01-26T11:26:49.355Z,148309.37
2019-01-26T11:27:52.206Z,148340.95
2019-01-26T11:28:58.696Z,148319.48
2019-01-26T11:30:04.304Z,148339.69
2019-01-26T11:31:11.413Z,148289.86
2019-01-26T11:32:18.863Z,148303.08
2019-01-26T11:33:25.352Z,148314.45
2019-01-26T11:34:31.732Z,148314.45
2019-01-26T11:35:38.251Z,148328.95
2019-01-26T11:36:44.312Z,148350.38
2019-01-26T11:37:50.769Z,148347.25
2019-01-26T11:38:56.842Z,148348.52
2019-01-26T11:40:02.731Z,148331.48
2019-01-26T11:41:09.205Z,148327.05
2019-01-26T11:42:15.542Z,148334.61
2019-01-26T11:43:21.912Z,148327.69
2019-01-26T11:44:27.919Z,148294.25
2019-01-26T11:45:36.098Z,148292.98
2019-01-26T11:46:42.577Z,148313.19
2019-01-26T11:47:49.037Z,148351.64
2019-01-26T11:48:55.457Z,148371.84
2019-01-26T11:50:01.846Z,148351.00
2019-01-26T11:51:13.633Z,148354.81
2019-01-26T11:52:20.042Z,148363.00
2019-01-26T11:53:26.450Z,148354.81
2019-01-26T11:54:32.875Z,148363.00
2019-01-26T11:55:44.203Z,148360.47
2019-01-26T11:56:50.342Z,148357.98
2019-01-26T11:57:56.739Z,148364.28
2019-01-26T11:59:02.451Z,148362.37
2019-01-26T12:00:09.488Z,148372.47
2019-01-26T12:01:21.324Z,148363.00
2019-01-26T12:02:30.007Z,148371.84
2019-01-26T12:05:06.205Z,148412.84
2019-01-26T12:06:12.927Z,148389.52
2019-01-26T12:07:18.978Z,148388.88
2019-01-26T12:08:25.475Z,148358.56
2019-01-26T12:09:31.859Z,148376.87
2019-01-26T12:10:37.897Z,148389.52
2019-01-26T12:11:43.874Z,148397.70
2019-01-26T12:12:50.212Z,148427.34
2019-01-26T12:13:56.298Z,148391.41
2019-01-26T12:15:02.809Z,148407.19
2019-01-26T12:16:09.179Z,148391.41
2019-01-26T12:17:15.718Z,148409.67
2019-01-26T12:18:22.153Z,148400.84
2019-01-26T12:19:29.459Z,148412.20
2019-01-26T12:20:35.574Z,148413.47
2019-01-26T12:21:41.736Z,148399.61
2019-01-26T12:22:48.114Z,148422.31
2019-01-26T12:23:55.086Z,148379.41
2019-01-26T12:25:01.138Z,148418.50
2019-01-26T12:26:08.300Z,148418.50
2019-01-26T12:27:14.739Z,148383.22
2019-01-26T12:28:21.345Z,148407.81
2019-01-26T12:29:27.955Z,148408.45
2019-01-26T12:30:34.580Z,148437.44
2019-01-26T12:31:41.106Z,148403.37
2019-01-26T12:32:47.663Z,148390.14
2019-01-26T12:33:54.814Z,148395.81
2019-01-26T12:35:02.389Z,148396.44
2019-01-26T12:36:08.981Z,148383.22
2019-01-26T12:37:15.547Z,148390.14
2019-01-26T12:38:22.116Z,148378.77
2019-01-26T12:39:28.965Z,148393.27
2019-01-26T12:40:35.552Z,148375.59
2019-01-26T12:41:42.122Z,148410.30
2019-01-26T12:42:49.036Z,148444.38
2019-01-26T12:43:55.498Z,148427.97